createdAt,value
2024-05-09T00:04:53.673Z,64738.78
2024-05-09T00:09:59.805Z,64719.28
2024-05-09T00:15:09.610Z,64682.00
2024-05-09T00:20:20.526Z,64708.16
2024-05-09T00:25:30.820Z,64746.06
2024-05-09T00:30:39.154Z,64743.53
2024-05-09T00:35:45.167Z,64694.16
2024-05-09T00:40:51.074Z,64704.38
2024-05-09T00:45:59.389Z,64695.47
2024-05-09T00:51:06.419Z,64735.59
2024-05-09T00:56:14.478Z,64720.66
2024-05-09T01:01:26.542Z,64745.13
2024-05-09T01:06:32.585Z,64770.13
2024-05-09T01:11:39.782Z,64787.50
2024-05-09T01:16:48.662Z,64760.59
2024-05-09T01:21:54.477Z,64802.22
2024-05-09T01:27:02.845Z,64784.44
2024-05-09T01:32:09.227Z,64783.91
2024-05-09T01:37:15.528Z,64804.34
2024-05-09T01:42:24.094Z,64781.56
2024-05-09T01:47:30.195Z,64748.94
2024-05-09T01:52:38.943Z,64751.38
2024-05-09T01:57:47.382Z,64791.75
2024-05-09T02:02:53.369Z,64769.50
2024-05-09T02:07:59.453Z,64789.00
2024-05-09T02:13:09.542Z,64777.97
2024-05-09T02:18:15.858Z,64744.47
2024-05-09T02:23:22.594Z,64750.44
2024-05-09T02:28:31.251Z,64714.00
2024-05-09T02:33:37.633Z,64549.88
2024-05-09T02:38:43.924Z,64586.97
2024-05-09T02:43:52.602Z,64454.09
2024-05-09T02:48:58.469Z,64522.28
2024-05-09T02:54:04.037Z,64498.19
2024-05-09T02:59:12.610Z,64501.25
2024-05-09T03:04:18.997Z,64364.22
2024-05-09T03:09:26.813Z,64505.88
2024-05-09T03:14:35.414Z,64487.63
2024-05-09T03:19:41.299Z,64580.94
2024-05-09T03:24:47.019Z,64601.69
2024-05-09T03:29:55.471Z,64631.31
2024-05-09T03:35:01.313Z,64686.78
2024-05-09T03:40:11.919Z,64657.78
2024-05-09T03:45:26.124Z,64698.41
2024-05-09T03:50:35.559Z,64675.13
2024-05-09T03:55:42.419Z,64655.41
2024-05-09T04:00:51.042Z,64708.47
2024-05-09T04:05:57.013Z,64674.72
2024-05-09T04:11:02.814Z,64687.41
2024-05-09T04:16:13.658Z,64720.22
2024-05-09T04:21:19.495Z,64749.78
2024-05-09T04:26:25.387Z,64829.06
2024-05-09T04:31:38.953Z,64803.41
2024-05-09T04:36:44.974Z,64727.13
2024-05-09T04:41:51.024Z,64707.72
2024-05-09T04:46:59.623Z,64777.56
2024-05-09T04:52:05.728Z,64776.91
2024-05-09T04:57:13.606Z,64720.75
2024-05-09T05:02:22.247Z,64787.09
2024-05-09T05:07:28.255Z,64811.88
2024-05-09T05:12:50.232Z,64872.94
2024-05-09T05:17:59.032Z,65006.00
2024-05-09T05:23:05.181Z,65000.28
2024-05-09T05:28:11.563Z,64972.06
2024-05-09T05:33:22.814Z,64948.28
2024-05-09T05:38:30.305Z,64992.22
2024-05-09T05:43:37.433Z,64958.03
2024-05-09T05:48:46.195Z,64987.97
2024-05-09T05:53:52.520Z,65061.88
2024-05-09T05:58:58.577Z,65120.19
2024-05-09T06:04:07.172Z,65143.56
2024-05-09T06:09:27.778Z,65132.41
2024-05-09T06:14:34.051Z,65192.72
2024-05-09T06:19:42.825Z,65103.31
2024-05-09T06:24:48.946Z,65166.56
2024-05-09T06:29:54.968Z,65306.00
2024-05-09T06:35:03.647Z,65340.94
2024-05-09T06:40:12.610Z,65380.75
2024-05-09T06:45:20.606Z,65378.72
2024-05-09T06:50:36.818Z,65318.25
2024-05-09T06:55:46.068Z,65365.97
2024-05-09T07:00:52.160Z,65403.88
2024-05-09T07:06:00.905Z,65425.72
2024-05-09T07:11:07.338Z,65472.94
2024-05-09T07:16:13.411Z,65431.03
2024-05-09T07:21:22.083Z,65321.34
2024-05-09T07:26:28.127Z,65383.53
2024-05-09T07:31:34.198Z,65369.16
2024-05-09T07:36:42.991Z,65406.53
2024-05-09T07:41:49.077Z,65388.53
2024-05-09T07:48:13.954Z,65391.41
2024-05-09T07:53:30.559Z,65430.41
2024-05-09T07:57:49.932Z,65430.09
2024-05-09T08:02:56.053Z,65449.50
2024-05-09T08:08:04.684Z,65488.59
2024-05-09T08:13:11.233Z,65485.72
2024-05-09T08:18:17.784Z,65429.34
2024-05-09T08:23:26.581Z,65475.19
2024-05-09T08:28:32.724Z,65545.09
2024-05-09T08:33:39.148Z,65586.19
2024-05-09T08:38:48.124Z,65599.41
2024-05-09T08:43:54.186Z,65570.59
2024-05-09T08:49:01.324Z,65506.63
2024-05-09T08:54:10.275Z,65468.25
2024-05-09T08:59:22.820Z,65600.03
2024-05-09T09:04:30.743Z,65635.69
2024-05-09T09:09:43.678Z,65630.91
2024-05-09T09:14:50.024Z,65628.22
2024-05-09T09:19:55.935Z,65616.59
2024-05-09T09:25:04.714Z,65574.34
2024-05-09T09:30:27.258Z,65553.97
2024-05-09T09:35:38.739Z,65576.03
2024-05-09T09:40:50.550Z,65630.44
2024-05-09T09:46:00.166Z,65718.44
2024-05-09T09:51:06.514Z,65718.00
2024-05-09T09:56:16.202Z,65780.31
2024-05-09T10:01:22.446Z,65734.03
2024-05-09T10:06:30.536Z,65740.97
2024-05-09T10:11:49.040Z,65762.88
2024-05-09T10:17:07.557Z,65741.50
2024-05-09T10:22:16.753Z,65769.25
2024-05-09T10:27:32.550Z,65809.91
2024-05-09T10:32:44.158Z,65790.44
2024-05-09T10:37:51.257Z,65763.41
2024-05-09T10:43:04.530Z,65783.50
2024-05-09T10:48:12.401Z,65800.72
2024-05-09T10:53:19.358Z,65729.22
2024-05-09T10:58:28.369Z,65838.22
2024-05-09T11:03:34.729Z,65846.06
2024-05-09T11:08:42.269Z,65808.72
2024-05-09T11:13:53.575Z,65893.72
2024-05-09T11:19:00.412Z,65956.84
2024-05-09T11:24:10.495Z,65961.84
2024-05-09T11:29:19.940Z,66074.63
2024-05-09T11:34:26.058Z,66398.03
2024-05-09T11:39:32.229Z,66646.75
2024-05-09T11:44:40.802Z,66427.97
2024-05-09T11:49:46.836Z,66372.81
2024-05-09T11:54:53.029Z,66356.63
2024-05-09T12:00:01.721Z,66246.09
2024-05-09T12:05:10.837Z,66168.91
2024-05-09T12:10:22.147Z,66236.44
2024-05-09T12:15:37.080Z,66452.91
2024-05-09T12:20:45.642Z,66442.69
2024-05-09T12:25:51.562Z,66414.16
2024-05-09T12:31:03.097Z,66525.78
2024-05-09T12:36:09.679Z,66444.66
2024-05-09T12:41:15.524Z,66364.13
2024-05-09T12:46:24.359Z,66344.81
2024-05-09T12:51:31.272Z,66329.97
2024-05-09T12:56:37.419Z,66205.53
2024-05-09T13:01:46.107Z,66203.75
2024-05-09T13:06:52.220Z,66231.09
2024-05-09T13:11:58.450Z,66366.00
2024-05-09T13:17:07.473Z,66312.78
2024-05-09T13:22:13.681Z,66308.69
2024-05-09T13:27:19.837Z,66311.09
2024-05-09T13:32:28.496Z,66231.09
2024-05-09T13:37:35.588Z,66360.91
2024-05-09T13:42:41.709Z,66342.56
2024-05-09T13:47:50.477Z,66448.38
2024-05-09T13:52:56.459Z,66409.41
2024-05-09T13:58:02.608Z,66377.56
2024-05-09T14:03:12.716Z,66377.47
2024-05-09T14:08:20.319Z,66306.72
2024-05-09T14:13:26.844Z,66336.31
2024-05-09T14:18:35.751Z,66347.34
2024-05-09T14:23:41.754Z,66350.72
2024-05-09T14:28:47.750Z,66359.28
2024-05-09T14:33:56.374Z,66444.06
2024-05-09T14:39:02.425Z,66382.81
2024-05-09T14:44:08.643Z,66384.97
2024-05-09T14:49:17.309Z,66323.91
2024-05-09T14:54:23.342Z,66401.09
2024-05-09T14:59:29.345Z,66430.25
2024-05-09T15:04:37.975Z,66368.34
2024-05-09T15:09:44.388Z,66393.13
2024-05-09T15:14:50.392Z,66519.34
2024-05-09T15:19:59.220Z,66390.34
2024-05-09T15:25:05.147Z,66380.88
2024-05-09T15:30:13.244Z,66476.00
2024-05-09T15:35:24.066Z,66372.09
2024-05-09T15:40:37.255Z,66371.63
2024-05-09T15:45:45.825Z,66344.81
2024-05-09T15:50:54.480Z,66415.50
2024-05-09T15:56:00.372Z,66443.69
2024-05-09T16:01:06.437Z,66303.44
2024-05-09T16:06:15.162Z,66131.84
2024-05-09T16:11:21.149Z,66022.56
2024-05-09T16:16:27.350Z,65844.44
2024-05-09T16:21:36.196Z,65807.13
2024-05-09T16:26:42.352Z,65826.91
2024-05-09T16:31:48.343Z,65703.94
2024-05-09T16:36:56.945Z,65649.66
2024-05-09T16:42:02.908Z,65643.69
2024-05-09T16:47:09.031Z,65704.56
2024-05-09T16:52:18.064Z,65745.06
2024-05-09T16:57:24.996Z,65607.41
2024-05-09T17:02:31.334Z,65671.47
2024-05-09T17:07:40.193Z,65636.88
2024-05-09T17:12:46.186Z,65585.00
2024-05-09T17:17:52.878Z,65590.44
2024-05-09T17:23:01.740Z,65570.50
2024-05-09T17:28:08.763Z,65600.47
2024-05-09T17:33:14.948Z,65536.91
2024-05-09T17:38:25.311Z,65517.81
2024-05-09T17:43:31.761Z,65482.63
2024-05-09T17:48:37.954Z,65494.38
2024-05-09T17:53:48.031Z,65452.78
2024-05-09T17:58:54.163Z,65469.41
2024-05-09T18:04:00.268Z,65380.88
2024-05-09T18:09:09.064Z,65339.22
2024-05-09T18:14:15.059Z,65367.56
2024-05-09T18:19:21.066Z,65315.91
2024-05-09T18:24:29.856Z,65333.59
2024-05-09T18:29:36.031Z,65314.75
2024-05-09T18:34:42.031Z,65310.47
2024-05-09T18:39:50.650Z,65296.13
2024-05-09T18:44:56.509Z,65357.34
2024-05-09T18:50:02.935Z,65337.63
2024-05-09T18:55:12.269Z,65331.47
2024-05-09T19:00:30.915Z,65327.09
2024-05-09T19:05:44.071Z,65309.00
2024-05-09T19:10:54.510Z,65294.00
2024-05-09T19:16:00.780Z,65303.03
2024-05-09T19:21:08.404Z,65246.63
2024-05-09T19:26:18.573Z,65212.59
2024-05-09T19:31:24.856Z,65204.50
2024-05-09T19:36:31.396Z,65177.09
2024-05-09T19:41:40.097Z,65172.81
2024-05-09T19:46:46.173Z,65162.19
2024-05-09T19:51:54.914Z,65169.53
2024-05-09T19:57:04.133Z,65219.63
2024-05-09T20:02:10.251Z,65181.03
2024-05-09T20:07:16.611Z,65102.03
2024-05-09T20:12:25.170Z,65139.25
2024-05-09T20:17:31.208Z,65105.75
2024-05-09T20:22:37.564Z,65061.88
2024-05-09T20:27:46.155Z,65047.75
2024-05-09T20:32:52.110Z,65094.59
2024-05-09T20:37:58.148Z,65133.47
2024-05-09T20:43:07.517Z,65120.19
2024-05-09T20:48:14.088Z,65092.69
2024-05-09T20:53:20.156Z,65073.03
2024-05-09T20:58:29.212Z,65109.38
2024-05-09T21:03:38.357Z,65090.78
2024-05-09T21:08:44.863Z,65056.56
2024-05-09T21:13:54.148Z,64928.31
2024-05-09T21:19:00.163Z,64798.94
2024-05-09T21:24:06.396Z,64741.84
2024-05-09T21:29:15.139Z,64785.69
2024-05-09T21:34:21.777Z,64805.94
2024-05-09T21:39:27.845Z,64780.63
2024-05-09T21:44:36.655Z,64828.44
2024-05-09T21:49:42.752Z,64887.69
2024-05-09T21:54:49.937Z,64961.84
2024-05-09T21:59:58.540Z,64830.31
2024-05-09T22:05:04.625Z,64828.19
2024-05-09T22:10:20.044Z,64821.31
2024-05-09T22:15:37.467Z,64745.53
2024-05-09T22:20:46.399Z,64748.84
2024-05-09T22:25:52.781Z,64717.47
2024-05-09T22:31:01.385Z,64660.84
2024-05-09T22:36:10.372Z,64568.25
2024-05-09T22:41:16.379Z,64529.13
2024-05-09T22:46:25.041Z,64596.69
2024-05-09T22:51:30.846Z,64639.66
2024-05-09T22:56:36.557Z,64570.25
2024-05-09T23:01:45.197Z,64506.00
2024-05-09T23:06:54.220Z,64493.84
2024-05-09T23:12:00.219Z,64508.13
2024-05-09T23:17:08.577Z,64482.34
2024-05-09T23:22:14.692Z,64500.47
2024-05-09T23:27:20.528Z,64541.19
2024-05-09T23:32:29.058Z,64602.63
2024-05-09T23:37:34.945Z,64565.19
2024-05-09T23:42:43.189Z,64489.22
2024-05-09T23:47:51.854Z,64465.72
2024-05-09T23:52:57.826Z,64551.22
2024-05-09T23:58:03.645Z,64445.66
